createdAt,value
2023-04-21T00:00:35.449Z,96819.47
2023-04-21T00:02:39.608Z,96820.41
2023-04-21T00:04:45.484Z,96817.88
2023-04-21T00:06:48.249Z,96816.34
2023-04-21T00:08:51.205Z,96815.28
2023-04-21T00:10:55.331Z,96813.84
2023-04-21T00:12:57.876Z,96809.72
2023-04-21T00:15:00.621Z,96813.31
2023-04-21T00:17:03.179Z,96806.34
2023-04-21T00:19:07.040Z,96808.25
2023-04-21T00:21:09.610Z,96806.56
2023-04-21T00:23:12.266Z,96809.25
2023-04-21T00:25:15.483Z,96806.78
2023-04-21T00:27:19.990Z,96795.53
2023-04-21T00:29:22.529Z,96793.81
2023-04-21T00:31:25.254Z,96786.06
2023-04-21T00:33:27.917Z,96793.81
2023-04-21T00:35:30.831Z,96786.03
2023-04-21T00:37:33.414Z,96786.84
2023-04-21T00:39:35.931Z,96791.16
2023-04-21T00:41:39.869Z,96788.53
2023-04-21T00:44:05.599Z,96793.81
2023-04-21T00:46:08.152Z,96793.81
2023-04-21T00:48:12.043Z,96789.53
2023-04-21T00:50:14.617Z,96790.44
2023-04-21T00:52:18.874Z,96785.28
2023-04-21T00:54:22.084Z,96781.81
2023-04-21T00:56:25.410Z,96778.38
2023-04-21T00:58:28.138Z,96770.66
2023-04-21T01:00:32.107Z,96774.09
2023-04-21T01:02:37.277Z,96768.13
2023-04-21T01:04:40.252Z,96776.81
2023-04-21T01:06:43.160Z,96777.75
2023-04-21T01:08:47.348Z,96779.53
2023-04-21T01:10:49.882Z,96771.81
2023-04-21T01:12:52.455Z,96762.38
2023-04-21T01:14:55.033Z,96760.69
2023-04-21T01:16:59.349Z,96771.16
2023-04-21T01:19:04.496Z,96763.25
2023-04-21T01:21:07.503Z,96764.94
2023-04-21T01:23:11.451Z,96779.78
2023-04-21T01:25:14.064Z,96767.84
2023-04-21T01:27:19.132Z,96761.81
2023-04-21T01:29:21.692Z,96773.09
2023-04-21T01:31:24.276Z,96776.53
2023-04-21T01:33:26.987Z,96777.47
2023-04-21T01:35:29.595Z,96777.59
2023-04-21T01:37:33.743Z,96768.09
2023-04-21T01:39:39.997Z,96773.28
2023-04-21T01:41:42.546Z,96775.16
2023-04-21T01:43:45.151Z,96771.59
2023-04-21T01:45:49.209Z,96770.78
2023-04-21T01:47:51.792Z,96769.13
2023-04-21T01:49:54.606Z,96778.66
2023-04-21T01:51:57.133Z,96782.22
2023-04-21T01:53:59.660Z,96780.59
2023-04-21T01:56:03.628Z,96778.84
2023-04-21T01:58:06.221Z,96778.84
2023-04-21T02:00:10.220Z,96770.28
2023-04-21T02:02:13.012Z,96770.38
2023-04-21T02:04:15.675Z,96776.31
2023-04-21T02:06:18.735Z,96772.19
2023-04-21T02:08:21.272Z,96777.38
2023-04-21T02:10:24.030Z,96774.84
2023-04-21T02:12:27.897Z,96787.50
2023-04-21T02:14:30.478Z,96784.31
2023-04-21T02:16:33.062Z,96787.25
2023-04-21T02:18:39.849Z,96788.25
2023-04-21T02:20:42.417Z,96783.91
2023-04-21T02:22:45.163Z,96783.28
2023-04-21T02:24:47.784Z,96787.59
2023-04-21T02:26:50.370Z,96784.22
2023-04-21T02:28:54.295Z,96791.38
2023-04-21T02:30:56.868Z,96791.50
2023-04-21T02:32:59.468Z,96798.44
2023-04-21T02:35:02.076Z,96789.84
2023-04-21T02:37:04.869Z,96789.84
2023-04-21T02:39:07.573Z,96796.81
2023-04-21T02:41:10.375Z,96784.75
2023-04-21T02:43:14.610Z,96779.56
2023-04-21T02:45:18.715Z,96777.84
2023-04-21T02:47:21.382Z,96776.91
2023-04-21T02:49:23.977Z,96781.22
2023-04-21T02:51:26.818Z,96775.34
2023-04-21T02:53:29.381Z,96774.66
2023-04-21T02:55:32.132Z,96774.63
2023-04-21T02:57:34.732Z,96775.47
2023-04-21T02:59:37.300Z,96781.47
2023-04-21T03:01:41.166Z,96778.69
2023-04-21T03:03:43.827Z,96773.63
2023-04-21T03:05:46.449Z,96771.97
2023-04-21T03:07:49.040Z,96778.88
2023-04-21T03:09:51.618Z,96770.41
2023-04-21T03:11:54.156Z,96779.63
2023-04-21T03:13:56.690Z,96772.78
2023-04-21T03:15:59.289Z,96773.59
2023-04-21T03:18:03.200Z,96779.69
2023-04-21T03:20:08.132Z,96781.13
2023-04-21T03:22:10.684Z,96784.06
2023-04-21T03:24:13.397Z,96780.88
2023-04-21T03:26:18.684Z,96781.81
2023-04-21T03:28:21.228Z,96777.63
2023-04-21T03:30:25.663Z,96778.56
2023-04-21T03:32:28.350Z,96778.66
2023-04-21T03:34:32.318Z,96775.16
2023-04-21T03:36:37.190Z,96778.78
2023-04-21T03:38:39.702Z,96789.06
2023-04-21T03:40:42.291Z,96782.34
2023-04-21T03:42:45.053Z,96785.75
2023-04-21T03:44:47.571Z,96789.72
2023-04-21T03:46:50.166Z,96780.06
2023-04-21T03:48:52.723Z,96782.19
2023-04-21T03:50:56.755Z,96786.59
2023-04-21T03:52:59.313Z,96772.88
2023-04-21T03:55:01.823Z,96775.44
2023-04-21T03:57:04.361Z,96774.63
2023-04-21T03:59:07.119Z,96788.50
2023-04-21T04:01:09.630Z,96785.88
2023-04-21T04:03:12.349Z,96783.34
2023-04-21T04:05:14.992Z,96774.75
2023-04-21T04:07:19.031Z,96782.50
2023-04-21T04:09:21.711Z,96782.50
2023-04-21T04:11:24.357Z,96787.66
2023-04-21T04:13:27.613Z,96785.00
2023-04-21T04:15:30.221Z,96778.16
2023-04-21T04:17:32.820Z,96779.78
2023-04-21T04:19:35.347Z,96777.13
2023-04-21T04:21:38.160Z,96785.66
2023-04-21T04:23:42.569Z,96777.00
2023-04-21T04:25:45.456Z,96775.25
2023-04-21T04:27:49.419Z,96781.19
2023-04-21T04:29:51.968Z,96785.47
2023-04-21T04:31:54.716Z,96784.69
2023-04-21T04:33:57.339Z,96784.63
2023-04-21T04:35:59.889Z,96782.06
2023-04-21T04:38:02.409Z,96774.31
2023-04-21T04:40:09.992Z,96775.22
2023-04-21T04:42:12.601Z,96761.44
2023-04-21T04:44:16.226Z,96772.75
2023-04-21T04:46:20.556Z,96780.50
2023-04-21T04:48:24.363Z,96788.22
2023-04-21T04:50:27.053Z,96801.06
2023-04-21T04:52:29.595Z,96798.34
2023-04-21T04:54:32.132Z,96800.34
2023-04-21T04:56:36.586Z,96797.53
2023-04-21T04:58:39.202Z,96794.22
2023-04-21T05:00:41.796Z,96795.09
2023-04-21T05:02:44.610Z,96800.22
2023-04-21T05:04:47.450Z,96807.94
2023-04-21T05:06:50.119Z,96807.94
2023-04-21T05:08:52.684Z,96807.16
2023-04-21T05:10:55.215Z,96812.28
2023-04-21T05:12:59.052Z,96818.31
2023-04-21T05:15:01.585Z,96823.44
2023-04-21T05:17:04.276Z,96830.34
2023-04-21T05:19:07.041Z,96832.78
2023-04-21T05:21:09.579Z,96825.16
2023-04-21T05:23:12.119Z,96814.91
2023-04-21T05:25:15.813Z,96815.78
2023-04-21T05:27:18.446Z,96803.72
2023-04-21T05:29:22.333Z,96820.00
2023-04-21T05:31:25.304Z,96819.09
2023-04-21T05:33:27.851Z,96807.94
2023-04-21T05:35:31.481Z,96807.94
2023-04-21T05:37:34.081Z,96804.41
2023-04-21T05:39:36.599Z,96800.09
2023-04-21T05:41:39.136Z,96792.28
2023-04-21T05:43:41.657Z,96782.84
2023-04-21T05:45:45.532Z,96792.28
2023-04-21T05:47:48.094Z,96794.00
2023-04-21T05:49:53.644Z,96793.22
2023-04-21T05:51:56.284Z,96783.69
2023-04-21T05:53:58.907Z,96777.53
2023-04-21T05:56:01.446Z,96781.81
2023-04-21T05:58:04.202Z,96794.75
2023-04-21T06:00:08.538Z,96812.06
2023-04-21T06:02:12.671Z,96810.88
2023-04-21T06:04:15.864Z,96802.00
2023-04-21T06:06:18.765Z,96799.56
2023-04-21T06:08:21.335Z,96802.19
2023-04-21T06:10:23.895Z,96808.28
2023-04-21T06:12:26.447Z,96815.16
2023-04-21T06:14:29.153Z,96803.91
2023-04-21T06:16:34.124Z,96793.53
2023-04-21T06:18:38.083Z,96790.06
2023-04-21T06:20:41.446Z,96804.69
2023-04-21T06:22:43.976Z,96798.59
2023-04-21T06:24:46.499Z,96796.00
2023-04-21T06:26:49.036Z,96791.72
2023-04-21T06:28:51.746Z,96789.06
2023-04-21T06:30:54.256Z,96788.97
2023-04-21T06:32:56.814Z,96794.19
2023-04-21T06:35:00.699Z,96794.16
2023-04-21T06:37:03.319Z,96791.50
2023-04-21T06:39:05.841Z,96783.75
2023-04-21T06:41:08.360Z,96794.94
2023-04-21T06:43:10.928Z,96801.84
2023-04-21T06:45:13.523Z,96802.69
2023-04-21T06:47:16.712Z,96806.28
2023-04-21T06:49:19.674Z,96805.19
2023-04-21T06:51:23.817Z,96804.34
2023-04-21T06:53:26.458Z,96799.88
2023-04-21T06:55:29.102Z,96806.28
2023-04-21T06:57:31.644Z,96805.56
2023-04-21T06:59:34.887Z,96807.84
2023-04-21T07:01:37.445Z,96799.41
2023-04-21T07:05:42.794Z,96800.38
2023-04-21T07:07:46.688Z,96793.25
2023-04-21T07:09:49.304Z,96785.47
2023-04-21T07:11:51.853Z,96798.63
2023-04-21T07:13:54.366Z,96792.16
2023-04-21T07:15:57.257Z,96802.84
2023-04-21T07:17:59.889Z,96800.38
2023-04-21T07:20:02.546Z,96796.94
2023-04-21T07:22:05.089Z,96797.72
2023-04-21T07:24:09.823Z,96799.88
2023-04-21T07:26:12.408Z,96807.38
2023-04-21T07:28:16.076Z,96809.91
2023-04-21T07:30:18.644Z,96807.47
2023-04-21T07:32:21.212Z,96813.13
2023-04-21T07:34:23.868Z,96808.09
2023-04-21T07:36:28.906Z,96801.50
2023-04-21T07:38:34.688Z,96804.09
2023-04-21T07:40:38.729Z,96800.59
2023-04-21T07:42:41.332Z,96799.00
2023-04-21T07:44:45.620Z,96788.59
2023-04-21T07:46:48.207Z,96799.69
2023-04-21T07:48:50.935Z,96795.34
2023-04-21T07:50:53.533Z,96794.47
2023-04-21T07:52:56.091Z,96800.44
2023-04-21T07:54:58.620Z,96792.59
2023-04-21T07:57:02.688Z,96789.03
2023-04-21T07:59:05.221Z,96785.44
2023-04-21T08:01:07.885Z,96786.28
2023-04-21T08:03:10.643Z,96785.28
2023-04-21T08:05:13.410Z,96783.44
2023-04-21T08:07:18.983Z,96782.53
2023-04-21T08:09:21.919Z,96789.22
2023-04-21T08:11:24.680Z,96787.19
2023-04-21T08:13:28.643Z,96790.63
2023-04-21T08:15:31.208Z,96788.81
2023-04-21T08:17:33.958Z,96777.59
2023-04-21T08:19:36.650Z,96785.63
2023-04-21T08:21:41.070Z,96786.41
2023-04-21T08:23:43.595Z,96782.69
2023-04-21T08:25:46.168Z,96782.03
2023-04-21T08:27:48.790Z,96773.50
2023-04-21T08:29:52.730Z,96776.03
2023-04-21T08:31:55.417Z,96774.25
2023-04-21T08:34:01.858Z,96775.88
2023-04-21T08:36:12.180Z,96774.91
2023-04-21T08:38:20.903Z,96768.78
2023-04-21T08:40:33.140Z,96771.28
2023-04-21T08:42:36.883Z,96759.94
2023-04-21T08:44:41.475Z,96757.19
2023-04-21T08:46:46.548Z,96756.88
2023-04-21T08:48:49.166Z,96743.53
2023-04-21T08:50:52.226Z,96741.84
2023-04-21T08:52:55.534Z,96743.59
2023-04-21T08:54:58.439Z,96729.66
2023-04-21T08:57:14.100Z,96734.63
2023-04-21T08:59:18.387Z,96735.25
2023-04-21T09:01:21.457Z,96735.19
2023-04-21T09:03:26.731Z,96743.56
2023-04-21T09:05:31.632Z,96736.63
2023-04-21T09:07:36.231Z,96737.78
2023-04-21T09:09:54.702Z,96739.63
2023-04-21T09:11:58.358Z,96736.97
2023-04-21T09:14:01.112Z,96745.56
2023-04-21T09:16:08.229Z,96751.53
2023-04-21T09:18:15.563Z,96734.66
2023-04-21T09:20:21.470Z,96729.53
2023-04-21T09:22:29.366Z,96729.00
2023-04-21T09:24:35.097Z,96729.88
2023-04-21T09:26:37.757Z,96732.41
2023-04-21T09:28:43.809Z,96728.88
2023-04-21T09:30:46.530Z,96728.56
2023-04-21T09:32:49.082Z,96725.06
2023-04-21T09:34:51.705Z,96723.28
2023-04-21T09:37:02.465Z,96723.16
2023-04-21T09:41:11.566Z,96709.19
2023-04-21T09:43:14.103Z,96707.25
2023-04-21T09:45:32.812Z,96699.31
2023-04-21T09:47:42.564Z,96703.44
2023-04-21T09:49:46.151Z,96707.56
2023-04-21T09:52:17.128Z,96709.09
2023-04-21T09:56:25.433Z,96701.78
2023-04-21T09:58:34.469Z,96706.75
2023-04-21T10:00:39.763Z,96705.69
2023-04-21T10:02:45.233Z,96703.03
2023-04-21T10:04:48.280Z,96701.78
2023-04-21T10:06:52.213Z,96703.34
2023-04-21T10:08:58.023Z,96705.97
2023-04-21T10:11:03.024Z,96708.50
2023-04-21T10:13:05.778Z,96693.69
2023-04-21T10:15:35.490Z,96687.56
2023-04-21T10:17:38.379Z,96688.94
2023-04-21T10:19:50.707Z,96686.84
2023-04-21T10:21:56.069Z,96694.44
2023-04-21T10:23:59.151Z,96696.97
2023-04-21T10:26:07.741Z,96701.97
2023-04-21T10:28:10.567Z,96692.25
2023-04-21T10:30:20.790Z,96694.47
2023-04-21T10:32:41.339Z,96690.84
2023-04-21T10:34:44.956Z,96687.41
2023-04-21T10:37:06.302Z,96689.03
2023-04-21T10:39:09.003Z,96686.25
2023-04-21T10:41:30.129Z,96678.91
2023-04-21T10:43:45.172Z,96678.78
2023-04-21T10:45:50.524Z,96678.44
2023-04-21T10:47:54.840Z,96676.69
2023-04-21T10:49:58.322Z,96679.03
2023-04-21T10:52:05.486Z,96669.34
2023-04-21T10:54:08.113Z,96664.00
2023-04-21T10:56:10.881Z,96666.22
2023-04-21T10:58:16.650Z,96666.88
2023-04-21T11:00:22.369Z,96661.59
2023-04-21T11:02:25.220Z,96649.72
2023-04-21T11:04:29.777Z,96649.72
2023-04-21T11:06:32.828Z,96657.19
2023-04-21T11:08:37.134Z,96647.56
2023-04-21T11:10:53.764Z,96646.56
2023-04-21T11:12:58.544Z,96648.19
2023-04-21T11:15:08.411Z,96651.44
2023-04-21T11:17:13.274Z,96643.47
2023-04-21T11:19:16.415Z,96641.56
2023-04-21T11:21:21.881Z,96638.63
2023-04-21T11:23:24.432Z,96643.69
2023-04-21T11:25:27.497Z,96643.47
2023-04-21T11:27:30.752Z,96638.75
2023-04-21T11:29:34.258Z,96638.38
2023-04-21T11:31:37.845Z,96638.47
2023-04-21T11:33:40.584Z,96637.41
2023-04-21T11:35:43.209Z,96636.31
2023-04-21T11:37:47.120Z,96624.06
2023-04-21T11:39:49.652Z,96635.84
2023-04-21T11:41:53.004Z,96628.03
2023-04-21T11:43:55.567Z,96637.06
2023-04-21T11:46:12.480Z,96626.47
2023-04-21T11:48:16.257Z,96627.00
2023-04-21T11:50:32.157Z,96624.09
2023-04-21T11:52:37.301Z,96620.22
2023-04-21T11:54:44.199Z,96614.91
2023-04-21T11:56:48.472Z,96614.66
2023-04-21T11:58:52.601Z,96617.97
2023-04-21T12:00:55.298Z,96620.34
2023-04-21T12:02:58.470Z,96615.97
2023-04-21T12:05:03.020Z,96611.34
2023-04-21T12:07:05.952Z,96616.97
2023-04-21T12:09:08.535Z,96611.66
2023-04-21T12:11:12.428Z,96603.75
2023-04-21T12:13:20.060Z,96605.31
2023-04-21T12:15:23.704Z,96602.16
2023-04-21T12:17:26.335Z,96603.69
2023-04-21T12:19:37.240Z,96598.09
2023-04-21T12:21:40.463Z,96594.38
2023-04-21T12:23:44.639Z,96586.31
2023-04-21T12:25:47.563Z,96592.03
2023-04-21T12:27:52.460Z,96590.00
2023-04-21T12:29:55.203Z,96580.16
2023-04-21T12:31:57.842Z,96574.16
2023-04-21T12:34:00.528Z,96572.53
2023-04-21T12:36:03.508Z,96577.41
2023-04-21T12:38:06.173Z,96577.66
2023-04-21T12:40:09.723Z,96569.03
2023-04-21T12:42:12.325Z,96569.91
2023-04-21T12:44:16.325Z,96569.09
2023-04-21T12:46:19.042Z,96569.91
2023-04-21T12:48:21.640Z,96567.31
2023-04-21T12:50:24.171Z,96562.84
2023-04-21T12:52:27.060Z,96563.47
2023-04-21T12:54:29.587Z,96560.69
2023-04-21T12:56:32.281Z,96556.94
2023-04-21T12:58:34.830Z,96555.50
2023-04-21T13:00:38.737Z,96555.91
2023-04-21T13:02:41.425Z,96554.59
2023-04-21T13:04:44.261Z,96547.31
2023-04-21T13:06:46.844Z,96546.03
2023-04-21T13:08:49.488Z,96542.88
2023-04-21T13:10:53.989Z,96536.81
2023-04-21T13:12:57.642Z,96538.97
2023-04-21T13:15:00.271Z,96540.22
2023-04-21T13:17:04.219Z,96546.47
2023-04-21T13:19:06.774Z,96549.47
2023-04-21T13:21:09.323Z,96555.81
2023-04-21T13:23:14.138Z,96552.03
2023-04-21T13:25:17.739Z,96550.25
2023-04-21T13:27:20.578Z,96548.66
2023-04-21T13:29:23.129Z,96550.25
2023-04-21T13:31:26.303Z,96542.13
2023-04-21T13:33:30.512Z,96546.31
2023-04-21T13:35:33.069Z,96541.00
2023-04-21T13:37:35.776Z,96542.59
2023-04-21T13:39:38.372Z,96541.69
2023-04-21T13:41:40.911Z,96536.31
2023-04-21T13:43:43.801Z,96531.97
2023-04-21T13:45:48.082Z,96536.59
2023-04-21T13:47:51.844Z,96540.34
2023-04-21T13:49:58.628Z,96536.94
2023-04-21T13:52:01.154Z,96537.38
2023-04-21T13:54:03.800Z,96530.25
2023-04-21T13:56:06.706Z,96529.16
2023-04-21T13:58:09.816Z,96524.16
2023-04-21T14:00:13.255Z,96524.84
2023-04-21T14:02:16.239Z,96508.53
2023-04-21T14:04:21.007Z,96512.47
2023-04-21T14:06:25.082Z,96504.63
2023-04-21T14:08:27.635Z,96497.78
2023-04-21T14:10:30.180Z,96503.66
2023-04-21T14:12:32.746Z,96497.19
2023-04-21T14:14:38.802Z,96503.91
2023-04-21T14:16:41.949Z,96508.34
2023-04-21T14:18:46.417Z,96512.09
2023-04-21T14:20:48.977Z,96505.88
2023-04-21T14:22:52.844Z,96500.50
2023-04-21T14:24:55.398Z,96496.66
2023-04-21T14:26:57.937Z,96498.50
2023-04-21T14:29:01.470Z,96500.16
2023-04-21T14:31:04.329Z,96504.50
2023-04-21T14:33:07.197Z,96502.28
2023-04-21T14:35:10.391Z,96503.16
2023-04-21T14:37:13.006Z,96502.69
2023-04-21T14:39:16.925Z,96489.84
2023-04-21T14:41:19.439Z,96491.72
2023-04-21T14:43:22.035Z,96484.78
2023-04-21T14:45:24.786Z,96484.13
2023-04-21T14:47:27.499Z,96477.53
2023-04-21T14:49:30.238Z,96477.78
2023-04-21T14:51:32.899Z,96477.19
2023-04-21T14:53:35.592Z,96479.91
2023-04-21T14:55:41.666Z,96479.09
2023-04-21T14:57:44.663Z,96473.38
2023-04-21T14:59:47.221Z,96466.66
2023-04-21T15:01:49.834Z,96467.34
2023-04-21T15:03:52.681Z,96465.75
2023-04-21T15:05:55.586Z,96459.69
2023-04-21T15:07:58.124Z,96456.03
2023-04-21T15:10:00.948Z,96458.47
2023-04-21T15:12:05.609Z,96459.19
2023-04-21T15:14:08.263Z,96454.59
2023-04-21T15:16:10.843Z,96464.84
2023-04-21T15:18:13.469Z,96461.78
2023-04-21T15:20:16.068Z,96457.25
2023-04-21T15:22:18.851Z,96455.47
2023-04-21T15:24:21.410Z,96454.13
2023-04-21T15:26:24.384Z,96460.44
2023-04-21T15:28:28.316Z,96455.00
2023-04-21T15:30:30.944Z,96452.97
2023-04-21T15:32:33.554Z,96455.47
2023-04-21T15:34:36.428Z,96456.16
2023-04-21T15:36:38.966Z,96461.59
2023-04-21T15:38:41.618Z,96458.94
2023-04-21T15:40:59.059Z,96464.78
2023-04-21T15:43:02.974Z,96459.44
2023-04-21T15:45:08.323Z,96460.53
2023-04-21T15:47:10.879Z,96461.63
2023-04-21T15:49:13.462Z,96456.19
2023-04-21T15:51:16.114Z,96456.69
2023-04-21T15:53:20.086Z,96465.00
2023-04-21T15:55:23.297Z,96456.41
2023-04-21T15:57:28.264Z,96456.66
2023-04-21T15:59:30.912Z,96459.44
2023-04-21T16:01:34.967Z,96459.69
2023-04-21T16:03:40.008Z,96456.75
2023-04-21T16:05:43.269Z,96460.13
2023-04-21T16:07:45.973Z,96462.25
2023-04-21T16:09:48.551Z,96458.13
2023-04-21T16:11:51.438Z,96458.88
2023-04-21T16:13:54.267Z,96462.03
2023-04-21T16:15:57.055Z,96462.22
2023-04-21T16:18:02.249Z,96469.88
2023-04-21T16:20:05.975Z,96465.09
2023-04-21T16:22:09.373Z,96466.31
2023-04-21T16:24:12.217Z,96461.56
2023-04-21T16:26:14.887Z,96468.69
2023-04-21T16:28:17.467Z,96463.53
2023-04-21T16:30:20.076Z,96462.53
2023-04-21T16:32:22.744Z,96455.91
2023-04-21T16:34:26.750Z,96464.47
2023-04-21T16:36:31.145Z,96469.00
2023-04-21T16:38:33.795Z,96468.72
2023-04-21T16:40:36.543Z,96470.63
2023-04-21T16:42:39.310Z,96464.25
2023-04-21T16:44:41.920Z,96463.66
2023-04-21T16:46:44.522Z,96459.34
2023-04-21T16:48:47.500Z,96463.25
2023-04-21T16:50:53.742Z,96462.91
2023-04-21T16:52:56.320Z,96458.81
2023-04-21T16:54:59.156Z,96458.72
2023-04-21T16:57:02.030Z,96460.28
2023-04-21T16:59:04.772Z,96461.50
2023-04-21T17:01:08.202Z,96468.69
2023-04-21T17:03:10.922Z,96468.22
2023-04-21T17:05:15.606Z,96468.44
2023-04-21T17:07:19.602Z,96471.19
2023-04-21T17:09:22.153Z,96473.97
2023-04-21T17:11:24.692Z,96476.38
2023-04-21T17:13:27.253Z,96481.63
2023-04-21T17:15:29.830Z,96492.41
2023-04-21T17:17:41.210Z,96494.56
2023-04-21T17:19:43.980Z,96495.16
2023-04-21T17:21:46.528Z,96492.16
2023-04-21T17:23:51.114Z,96498.97
2023-04-21T17:25:53.750Z,96504.09
2023-04-21T17:27:56.611Z,96497.78
2023-04-21T17:29:59.240Z,96488.09
2023-04-21T17:32:01.870Z,96502.31
2023-04-21T17:34:04.452Z,96504.31
2023-04-21T17:36:08.066Z,96506.75
2023-04-21T17:38:10.655Z,96495.03
2023-04-21T17:40:15.272Z,96508.50
2023-04-21T17:42:17.787Z,96507.16
2023-04-21T17:44:20.746Z,96505.50
2023-04-21T17:46:25.436Z,96514.47
2023-04-21T17:48:28.278Z,96517.22
2023-04-21T17:50:31.200Z,96517.94
2023-04-21T17:52:33.706Z,96520.88
2023-04-21T17:54:38.786Z,96513.59
2023-04-21T17:56:43.048Z,96515.00
2023-04-21T17:58:45.762Z,96515.38
2023-04-21T18:00:48.470Z,96513.53
2023-04-21T18:02:51.233Z,96518.84
2023-04-21T18:04:54.126Z,96506.09
2023-04-21T18:06:56.928Z,96508.16
2023-04-21T18:08:59.528Z,96509.41
2023-04-21T18:11:03.795Z,96502.06
2023-04-21T18:13:07.830Z,96506.00
2023-04-21T18:15:11.596Z,96515.19
2023-04-21T18:17:16.014Z,96527.38
2023-04-21T18:19:20.257Z,96521.44
2023-04-21T18:21:22.857Z,96531.34
2023-04-21T18:23:25.416Z,96528.50
2023-04-21T18:27:36.889Z,96532.97
2023-04-21T18:29:40.791Z,96537.72
2023-04-21T18:31:43.447Z,96537.72
2023-04-21T18:33:45.983Z,96539.72
2023-04-21T18:35:48.521Z,96535.84
2023-04-21T18:37:51.504Z,96539.72
2023-04-21T18:39:54.192Z,96537.44
2023-04-21T18:41:56.741Z,96541.22
2023-04-21T18:43:59.317Z,96542.88
2023-04-21T18:46:03.252Z,96544.75
2023-04-21T18:48:06.402Z,96553.59
2023-04-21T18:50:10.140Z,96554.63
2023-04-21T18:52:13.102Z,96561.91
2023-04-21T18:54:16.233Z,96563.81
2023-04-21T18:56:18.797Z,96569.34
2023-04-21T18:58:21.635Z,96567.16
2023-04-21T19:00:24.190Z,96560.44
2023-04-21T19:02:30.050Z,96555.41
2023-04-21T19:04:32.914Z,96550.53
2023-04-21T19:06:35.662Z,96555.78
2023-04-21T19:08:42.540Z,96556.75
2023-04-21T19:10:46.039Z,96551.63
2023-04-21T19:12:48.702Z,96558.84
2023-04-21T19:14:52.415Z,96563.47
2023-04-21T19:16:56.263Z,96562.72
2023-04-21T19:19:00.953Z,96561.06
2023-04-21T19:21:04.439Z,96559.47
2023-04-21T19:23:07.040Z,96568.50
2023-04-21T19:25:11.973Z,96561.78
2023-04-21T19:27:15.199Z,96564.50
2023-04-21T19:29:17.794Z,96563.00
2023-04-21T19:31:21.526Z,96566.59
2023-04-21T19:33:24.267Z,96571.06
2023-04-21T19:35:28.544Z,96571.75
2023-04-21T19:37:34.452Z,96571.41
2023-04-21T19:39:37.754Z,96579.81
2023-04-21T19:41:40.292Z,96577.00
2023-04-21T19:43:42.842Z,96579.72
2023-04-21T19:45:46.119Z,96575.94
2023-04-21T19:47:48.750Z,96577.97
2023-04-21T19:49:51.422Z,96580.25
2023-04-21T19:51:56.016Z,96573.88
2023-04-21T19:54:07.892Z,96581.41
2023-04-21T19:56:14.270Z,96584.34
2023-04-21T19:58:25.201Z,96587.31
2023-04-21T20:00:39.505Z,96590.72
2023-04-21T20:02:42.380Z,96592.38
2023-04-21T20:04:45.442Z,96592.69
2023-04-21T20:06:48.128Z,96595.59
2023-04-21T20:08:52.189Z,96591.09
2023-04-21T20:10:54.723Z,96594.19
2023-04-21T20:12:57.278Z,96597.22
2023-04-21T20:15:00.180Z,96593.75
2023-04-21T20:17:02.844Z,96593.84
2023-04-21T20:19:06.195Z,96599.19
2023-04-21T20:21:08.712Z,96594.91
2023-04-21T20:23:12.188Z,96593.19
2023-04-21T20:25:16.426Z,96584.47
2023-04-21T20:27:19.478Z,96589.84
2023-04-21T20:29:22.202Z,96588.25
2023-04-21T20:31:25.474Z,96584.41
2023-04-21T20:33:28.326Z,96582.63
2023-04-21T20:35:33.390Z,96586.56
2023-04-21T20:37:35.997Z,96579.75
2023-04-21T20:39:39.366Z,96579.09
2023-04-21T20:41:45.624Z,96574.88
2023-04-21T20:43:48.692Z,96576.69
2023-04-21T20:45:51.308Z,96583.59
2023-04-21T20:47:53.961Z,96581.41
2023-04-21T20:49:57.497Z,96578.56
2023-04-21T20:52:01.315Z,96581.22
2023-04-21T20:54:03.924Z,96582.28
2023-04-21T20:56:06.719Z,96584.66
2023-04-21T20:58:10.661Z,96583.28
2023-04-21T21:00:14.181Z,96589.97
2023-04-21T21:02:16.797Z,96584.34
2023-04-21T21:04:19.612Z,96589.84
2023-04-21T21:06:22.341Z,96587.72
2023-04-21T21:08:24.969Z,96585.38
2023-04-21T21:10:28.119Z,96582.84
2023-04-21T21:12:30.642Z,96583.72
2023-04-21T21:14:34.583Z,96588.09
2023-04-21T21:16:37.485Z,96593.34
2023-04-21T21:18:40.053Z,96590.72
2023-04-21T21:20:42.850Z,96596.06
2023-04-21T21:22:45.385Z,96591.78
2023-04-21T21:24:50.295Z,96590.06
2023-04-21T21:26:52.934Z,96601.31
2023-04-21T21:28:55.513Z,96595.25
2023-04-21T21:30:59.410Z,96596.91
2023-04-21T21:33:02.003Z,96588.09
2023-04-21T21:35:05.020Z,96588.94
2023-04-21T21:37:07.586Z,96587.84
2023-04-21T21:39:11.442Z,96594.53
2023-04-21T21:41:14.678Z,96593.13
2023-04-21T21:43:17.273Z,96592.31
2023-04-21T21:45:19.791Z,96594.28
2023-04-21T21:47:23.846Z,96586.91
2023-04-21T21:49:26.675Z,96593.44
2023-04-21T21:51:29.774Z,96591.84
2023-04-21T21:53:32.494Z,96592.78
2023-04-21T21:55:35.137Z,96584.09
2023-04-21T21:57:37.806Z,96584.47
2023-04-21T21:59:40.647Z,96587.66
2023-04-21T22:01:43.396Z,96589.81
2023-04-21T22:03:48.040Z,96590.00
2023-04-21T22:05:50.643Z,96593.09
2023-04-21T22:07:53.747Z,96584.78
2023-04-21T22:09:59.610Z,96592.88
2023-04-21T22:12:02.169Z,96586.84
2023-04-21T22:14:14.728Z,96590.38
2023-04-21T22:16:24.964Z,96589.34
2023-04-21T22:18:27.854Z,96581.41
2023-04-21T22:20:32.138Z,96591.97
2023-04-21T22:22:34.851Z,96583.34
2023-04-21T22:24:37.389Z,96590.38
2023-04-21T22:26:39.936Z,96588.91
2023-04-21T22:28:43.488Z,96590.66
2023-04-21T22:30:46.129Z,96587.19
2023-04-21T22:32:48.794Z,96587.09
2023-04-21T22:34:51.359Z,96583.06
2023-04-21T22:36:55.541Z,96595.25
2023-04-21T22:38:58.059Z,96597.22
2023-04-21T22:41:00.682Z,96595.41
2023-04-21T22:43:03.700Z,96594.59
2023-04-21T22:45:07.084Z,96592.22
2023-04-21T22:47:10.702Z,96594.25
2023-04-21T22:49:14.204Z,96597.16
2023-04-21T22:51:18.471Z,96590.91
2023-04-21T22:53:22.374Z,96597.34
2023-04-21T22:55:25.539Z,96590.50
2023-04-21T22:57:28.359Z,96594.94
2023-04-21T22:59:31.263Z,96592.31
2023-04-21T23:01:34.435Z,96595.59
2023-04-21T23:03:37.080Z,96589.03
2023-04-21T23:05:39.929Z,96578.28
2023-04-21T23:07:42.481Z,96581.28
2023-04-21T23:09:46.358Z,96584.06
2023-04-21T23:11:48.962Z,96582.28
2023-04-21T23:13:51.514Z,96581.19
2023-04-21T23:15:54.043Z,96579.84
2023-04-21T23:17:56.654Z,96577.50
2023-04-21T23:20:00.027Z,96581.06
2023-04-21T23:22:02.576Z,96575.16
2023-04-21T23:24:05.443Z,96575.16
2023-04-21T23:26:09.295Z,96579.63
2023-04-21T23:28:11.951Z,96573.50
2023-04-21T23:30:15.131Z,96577.88
2023-04-21T23:32:17.810Z,96567.41
2023-04-21T23:34:20.413Z,96570.88
2023-04-21T23:36:22.916Z,96569.06
2023-04-21T23:38:25.606Z,96567.41
2023-04-21T23:40:28.270Z,96570.94
2023-04-21T23:42:32.223Z,96572.84
2023-04-21T23:44:37.204Z,96568.03
2023-04-21T23:46:39.811Z,96569.66
2023-04-21T23:48:42.414Z,96571.41
2023-04-21T23:50:45.043Z,96568.69
2023-04-21T23:52:48.957Z,96568.59
2023-04-21T23:54:51.669Z,96578.22
2023-04-21T23:56:54.210Z,96571.97
2023-04-21T23:59:00.251Z,96572.06
